sensor_id;sensor_type;location;lat;lon;timestamp;temperature;humidity
51615;DHT22;37695;52.960;6.188;2024-03-25T00:01:32;6.50;99.90
51615;DHT22;37695;52.960;6.188;2024-03-25T00:03:58;5.90;99.90
51615;DHT22;37695;52.960;6.188;2024-03-25T00:06:24;6.00;99.90
51615;DHT22;37695;52.960;6.188;2024-03-25T00:08:49;6.00;99.90
51615;DHT22;37695;52.960;6.188;2024-03-25T00:11:15;5.20;99.90
51615;DHT22;37695;52.960;6.188;2024-03-25T00:13:41;6.20;99.90
51615;DHT22;37695;52.960;6.188;2024-03-25T00:16:06;5.00;99.90
51615;DHT22;37695;52.960;6.188;2024-03-25T00:18:33;5.70;99.90
51615;DHT22;37695;52.960;6.188;2024-03-25T00:20:58;5.70;99.90
51615;DHT22;37695;52.960;6.188;2024-03-25T00:23:24;4.60;99.90
51615;DHT22;37695;52.960;6.188;2024-03-25T00:25:50;5.20;99.90
51615;DHT22;37695;52.960;6.188;2024-03-25T00:28:15;4.90;99.90
51615;DHT22;37695;52.960;6.188;2024-03-25T00:30:41;5.90;99.90
51615;DHT22;37695;52.960;6.188;2024-03-25T00:33:07;5.80;99.90
51615;DHT22;37695;52.960;6.188;2024-03-25T00:35:33;5.70;99.90
51615;DHT22;37695;52.960;6.188;2024-03-25T00:37:59;5.80;99.90
51615;DHT22;37695;52.960;6.188;2024-03-25T00:40:25;8.60;99.90
51615;DHT22;37695;52.960;6.188;2024-03-25T00:42:50;5.90;99.90
51615;DHT22;37695;52.960;6.188;2024-03-25T00:45:16;5.00;99.90
51615;DHT22;37695;52.960;6.188;2024-03-25T00:47:42;5.80;99.90
51615;DHT22;37695;52.960;6.188;2024-03-25T00:50:08;6.20;99.90
51615;DHT22;37695;52.960;6.188;2024-03-25T00:52:34;5.90;99.90
51615;DHT22;37695;52.960;6.188;2024-03-25T00:55:01;6.50;99.90
51615;DHT22;37695;52.960;6.188;2024-03-25T00:57:26;6.70;99.90
51615;DHT22;37695;52.960;6.188;2024-03-25T01:02:18;6.30;99.90
51615;DHT22;37695;52.960;6.188;2024-03-25T01:07:10;6.10;99.90
51615;DHT22;37695;52.960;6.188;2024-03-25T01:09:35;6.50;99.90
51615;DHT22;37695;52.960;6.188;2024-03-25T01:12:01;5.50;99.90
51615;DHT22;37695;52.960;6.188;2024-03-25T01:14:27;5.80;99.90
51615;DHT22;37695;52.960;6.188;2024-03-25T01:19:19;5.70;99.90
51615;DHT22;37695;52.960;6.188;2024-03-25T01:21:46;6.20;99.90
51615;DHT22;37695;52.960;6.188;2024-03-25T01:24:12;5.20;99.90
51615;DHT22;37695;52.960;6.188;2024-03-25T01:26:37;5.80;99.90
51615;DHT22;37695;52.960;6.188;2024-03-25T01:29:03;6.10;99.90
51615;DHT22;37695;52.960;6.188;2024-03-25T01:33:55;5.30;99.90
51615;DHT22;37695;52.960;6.188;2024-03-25T01:36:20;5.60;99.90
51615;DHT22;37695;52.960;6.188;2024-03-25T01:38:46;5.10;99.90
51615;DHT22;37695;52.960;6.188;2024-03-25T01:41:12;5.60;99.90
51615;DHT22;37695;52.960;6.188;2024-03-25T01:43:40;5.30;99.90
51615;DHT22;37695;52.960;6.188;2024-03-25T01:46:06;5.00;99.90
51615;DHT22;37695;52.960;6.188;2024-03-25T01:48:32;5.20;99.90
51615;DHT22;37695;52.960;6.188;2024-03-25T01:50:58;5.30;99.90
51615;DHT22;37695;52.960;6.188;2024-03-25T01:53:25;3.90;99.90
51615;DHT22;37695;52.960;6.188;2024-03-25T01:55:54;5.20;99.90
51615;DHT22;37695;52.960;6.188;2024-03-25T01:58:21;4.90;99.90
51615;DHT22;37695;52.960;6.188;2024-03-25T02:00:49;5.20;99.90
51615;DHT22;37695;52.960;6.188;2024-03-25T02:03:16;4.90;99.90
51615;DHT22;37695;52.960;6.188;2024-03-25T02:05:42;4.80;99.90
51615;DHT22;37695;52.960;6.188;2024-03-25T02:08:09;5.60;99.90
51615;DHT22;37695;52.960;6.188;2024-03-25T02:10:35;4.70;99.90
51615;DHT22;37695;52.960;6.188;2024-03-25T02:13:03;5.10;99.90
51615;DHT22;37695;52.960;6.188;2024-03-25T02:15:28;5.30;99.90
51615;DHT22;37695;52.960;6.188;2024-03-25T02:17:54;3.80;99.90
51615;DHT22;37695;52.960;6.188;2024-03-25T02:20:20;4.80;99.90
51615;DHT22;37695;52.960;6.188;2024-03-25T02:22:46;4.90;99.90
51615;DHT22;37695;52.960;6.188;2024-03-25T02:25:14;5.10;99.90
51615;DHT22;37695;52.960;6.188;2024-03-25T02:27:41;5.80;99.90
51615;DHT22;37695;52.960;6.188;2024-03-25T02:30:09;5.60;99.90
51615;DHT22;37695;52.960;6.188;2024-03-25T02:32:37;5.50;99.90
51615;DHT22;37695;52.960;6.188;2024-03-25T02:35:06;5.40;99.90
51615;DHT22;37695;52.960;6.188;2024-03-25T02:37:33;4.00;99.90
51615;DHT22;37695;52.960;6.188;2024-03-25T02:40:01;5.70;99.90
51615;DHT22;37695;52.960;6.188;2024-03-25T02:42:29;5.30;99.90
51615;DHT22;37695;52.960;6.188;2024-03-25T02:44:58;6.00;99.90
51615;DHT22;37695;52.960;6.188;2024-03-25T02:47:24;5.90;99.90
51615;DHT22;37695;52.960;6.188;2024-03-25T02:49:50;5.10;99.90
51615;DHT22;37695;52.960;6.188;2024-03-25T02:52:17;3.50;99.90
51615;DHT22;37695;52.960;6.188;2024-03-25T02:54:42;5.60;99.90
51615;DHT22;37695;52.960;6.188;2024-03-25T02:57:08;5.70;99.90
51615;DHT22;37695;52.960;6.188;2024-03-25T02:59:34;4.00;99.90
51615;DHT22;37695;52.960;6.188;2024-03-25T03:04:25;5.30;99.90
51615;DHT22;37695;52.960;6.188;2024-03-25T03:06:51;5.10;99.90
51615;DHT22;37695;52.960;6.188;2024-03-25T03:09:16;5.40;99.90
51615;DHT22;37695;52.960;6.188;2024-03-25T03:11:42;5.10;99.90
51615;DHT22;37695;52.960;6.188;2024-03-25T03:14:08;5.60;99.90
51615;DHT22;37695;52.960;6.188;2024-03-25T03:16:34;5.50;99.90
51615;DHT22;37695;52.960;6.188;2024-03-25T03:18:59;5.70;99.90
51615;DHT22;37695;52.960;6.188;2024-03-25T03:21:25;5.20;99.90
51615;DHT22;37695;52.960;6.188;2024-03-25T03:23:51;5.40;99.90
51615;DHT22;37695;52.960;6.188;2024-03-25T03:26:17;5.30;99.90
51615;DHT22;37695;52.960;6.188;2024-03-25T03:28:42;5.40;99.90
51615;DHT22;37695;52.960;6.188;2024-03-25T03:31:08;5.90;99.90
51615;DHT22;37695;52.960;6.188;2024-03-25T03:33:34;4.70;99.90
51615;DHT22;37695;52.960;6.188;2024-03-25T03:35:59;6.30;99.90
51615;DHT22;37695;52.960;6.188;2024-03-25T03:38:25;5.50;99.90
51615;DHT22;37695;52.960;6.188;2024-03-25T03:41:01;6.20;99.90
51615;DHT22;37695;52.960;6.188;2024-03-25T03:43:27;5.30;99.90
51615;DHT22;37695;52.960;6.188;2024-03-25T03:48:19;5.80;99.90
51615;DHT22;37695;52.960;6.188;2024-03-25T03:50:44;6.20;99.90
51615;DHT22;37695;52.960;6.188;2024-03-25T03:55:37;6.20;99.90
51615;DHT22;37695;52.960;6.188;2024-03-25T03:58:03;4.80;99.90
51615;DHT22;37695;52.960;6.188;2024-03-25T04:00:29;5.50;99.90
51615;DHT22;37695;52.960;6.188;2024-03-25T04:02:54;5.20;99.90
51615;DHT22;37695;52.960;6.188;2024-03-25T04:05:20;5.30;99.90
51615;DHT22;37695;52.960;6.188;2024-03-25T04:07:46;5.10;99.90
51615;DHT22;37695;52.960;6.188;2024-03-25T04:12:39;5.80;99.90
51615;DHT22;37695;52.960;6.188;2024-03-25T04:15:05;5.30;99.90
51615;DHT22;37695;52.960;6.188;2024-03-25T04:17:31;5.00;99.90
51615;DHT22;37695;52.960;6.188;2024-03-25T04:19:59;5.40;99.90
51615;DHT22;37695;52.960;6.188;2024-03-25T04:24:57;5.60;99.90
51615;DHT22;37695;52.960;6.188;2024-03-25T04:29:50;4.90;99.90
51615;DHT22;37695;52.960;6.188;2024-03-25T04:32:15;5.10;99.90
51615;DHT22;37695;52.960;6.188;2024-03-25T04:34:41;5.60;99.90
51615;DHT22;37695;52.960;6.188;2024-03-25T04:37:07;4.50;99.90
51615;DHT22;37695;52.960;6.188;2024-03-25T04:39:33;5.10;99.90
51615;DHT22;37695;52.960;6.188;2024-03-25T04:41:58;5.30;99.90
51615;DHT22;37695;52.960;6.188;2024-03-25T04:44:24;5.30;99.90
51615;DHT22;37695;52.960;6.188;2024-03-25T04:46:50;5.10;99.90
51615;DHT22;37695;52.960;6.188;2024-03-25T04:49:15;4.40;99.90
51615;DHT22;37695;52.960;6.188;2024-03-25T04:51:41;5.20;99.90
51615;DHT22;37695;52.960;6.188;2024-03-25T04:56:33;4.40;99.90
51615;DHT22;37695;52.960;6.188;2024-03-25T04:58:59;4.30;99.90
51615;DHT22;37695;52.960;6.188;2024-03-25T05:01:27;5.00;99.90
51615;DHT22;37695;52.960;6.188;2024-03-25T05:03:53;4.40;99.90
51615;DHT22;37695;52.960;6.188;2024-03-25T05:06:19;2.60;99.90
51615;DHT22;37695;52.960;6.188;2024-03-25T05:08:44;4.40;99.90
51615;DHT22;37695;52.960;6.188;2024-03-25T05:11:10;2.90;99.90
51615;DHT22;37695;52.960;6.188;2024-03-25T05:13:36;5.00;99.90
51615;DHT22;37695;52.960;6.188;2024-03-25T05:16:01;4.80;99.90
51615;DHT22;37695;52.960;6.188;2024-03-25T05:18:27;4.20;99.90
51615;DHT22;37695;52.960;6.188;2024-03-25T05:20:53;4.40;99.90
51615;DHT22;37695;52.960;6.188;2024-03-25T05:23:18;4.30;99.90
51615;DHT22;37695;52.960;6.188;2024-03-25T05:25:44;4.50;99.90
51615;DHT22;37695;52.960;6.188;2024-03-25T05:30:38;4.60;99.90
51615;DHT22;37695;52.960;6.188;2024-03-25T05:37:59;3.20;99.90
51615;DHT22;37695;52.960;6.188;2024-03-25T05:40:24;4.50;99.90
51615;DHT22;37695;52.960;6.188;2024-03-25T05:47:42;4.20;99.90
51615;DHT22;37695;52.960;6.188;2024-03-25T05:50:08;4.70;99.90
51615;DHT22;37695;52.960;6.188;2024-03-25T05:52:34;4.10;99.90
51615;DHT22;37695;52.960;6.188;2024-03-25T06:02:17;2.10;99.90
51615;DHT22;37695;52.960;6.188;2024-03-25T06:04:43;3.90;99.90
51615;DHT22;37695;52.960;6.188;2024-03-25T06:09:35;3.10;99.90
51615;DHT22;37695;52.960;6.188;2024-03-25T06:12:00;2.20;99.90
51615;DHT22;37695;52.960;6.188;2024-03-25T06:14:26;4.60;99.90
51615;DHT22;37695;52.960;6.188;2024-03-25T06:16:51;3.00;99.90
51615;DHT22;37695;52.960;6.188;2024-03-25T06:24:10;4.10;99.90
51615;DHT22;37695;52.960;6.188;2024-03-25T06:26:36;2.60;99.90
51615;DHT22;37695;52.960;6.188;2024-03-25T06:29:02;4.30;99.90
51615;DHT22;37695;52.960;6.188;2024-03-25T06:31:28;4.20;99.90
51615;DHT22;37695;52.960;6.188;2024-03-25T06:34:12;4.30;99.90
51615;DHT22;37695;52.960;6.188;2024-03-25T06:39:14;4.20;99.90
51615;DHT22;37695;52.960;6.188;2024-03-25T06:41:39;3.90;99.90
51615;DHT22;37695;52.960;6.188;2024-03-25T06:44:05;4.20;99.90
51615;DHT22;37695;52.960;6.188;2024-03-25T06:46:31;3.10;99.90
51615;DHT22;37695;52.960;6.188;2024-03-25T06:51:23;4.60;99.90
51615;DHT22;37695;52.960;6.188;2024-03-25T06:53:48;4.80;99.90
51615;DHT22;37695;52.960;6.188;2024-03-25T06:58:40;3.60;99.90
51615;DHT22;37695;52.960;6.188;2024-03-25T07:01:10;4.30;99.90
51615;DHT22;37695;52.960;6.188;2024-03-25T07:03:38;5.50;99.90
51615;DHT22;37695;52.960;6.188;2024-03-25T07:06:06;5.20;99.90
51615;DHT22;37695;52.960;6.188;2024-03-25T07:08:32;6.00;99.90
51615;DHT22;37695;52.960;6.188;2024-03-25T07:10:59;4.80;99.90
51615;DHT22;37695;52.960;6.188;2024-03-25T07:13:24;4.40;99.90
51615;DHT22;37695;52.960;6.188;2024-03-25T07:15:50;5.80;99.90
51615;DHT22;37695;52.960;6.188;2024-03-25T07:18:17;6.00;99.90
51615;DHT22;37695;52.960;6.188;2024-03-25T07:20:43;6.40;99.90
51615;DHT22;37695;52.960;6.188;2024-03-25T07:23:09;6.00;99.90
51615;DHT22;37695;52.960;6.188;2024-03-25T07:25:35;6.70;99.90
51615;DHT22;37695;52.960;6.188;2024-03-25T07:28:02;5.80;99.90
51615;DHT22;37695;52.960;6.188;2024-03-25T07:30:28;6.00;99.90
51615;DHT22;37695;52.960;6.188;2024-03-25T07:32:58;7.40;99.90
51615;DHT22;37695;52.960;6.188;2024-03-25T07:35:24;6.70;99.90
51615;DHT22;37695;52.960;6.188;2024-03-25T07:37:51;6.80;99.90
51615;DHT22;37695;52.960;6.188;2024-03-25T07:40:20;6.50;99.90
51615;DHT22;37695;52.960;6.188;2024-03-25T07:42:47;6.30;99.90
51615;DHT22;37695;52.960;6.188;2024-03-25T07:47:40;6.40;99.90
51615;DHT22;37695;52.960;6.188;2024-03-25T07:50:06;6.50;99.90
51615;DHT22;37695;52.960;6.188;2024-03-25T07:54:59;6.50;99.90
51615;DHT22;37695;52.960;6.188;2024-03-25T07:57:25;6.80;99.90
51615;DHT22;37695;52.960;6.188;2024-03-25T07:59:50;5.90;99.90
51615;DHT22;37695;52.960;6.188;2024-03-25T08:02:16;7.30;99.90
51615;DHT22;37695;52.960;6.188;2024-03-25T08:04:41;7.10;99.90
51615;DHT22;37695;52.960;6.188;2024-03-25T08:07:07;6.90;99.90
51615;DHT22;37695;52.960;6.188;2024-03-25T08:09:33;7.20;99.90
51615;DHT22;37695;52.960;6.188;2024-03-25T08:14:25;7.60;99.90
51615;DHT22;37695;52.960;6.188;2024-03-25T08:19:16;7.90;99.90
51615;DHT22;37695;52.960;6.188;2024-03-25T08:21:42;7.50;99.90
51615;DHT22;37695;52.960;6.188;2024-03-25T08:24:08;7.90;99.90
51615;DHT22;37695;52.960;6.188;2024-03-25T08:26:33;7.40;99.90
51615;DHT22;37695;52.960;6.188;2024-03-25T08:28:59;7.80;99.90
51615;DHT22;37695;52.960;6.188;2024-03-25T08:31:25;7.70;99.90
51615;DHT22;37695;52.960;6.188;2024-03-25T08:33:50;9.10;99.90
51615;DHT22;37695;52.960;6.188;2024-03-25T08:36:17;8.00;99.90
51615;DHT22;37695;52.960;6.188;2024-03-25T08:38:44;9.10;99.90
51615;DHT22;37695;52.960;6.188;2024-03-25T08:41:09;8.40;99.90
51615;DHT22;37695;52.960;6.188;2024-03-25T08:43:35;8.00;99.90
51615;DHT22;37695;52.960;6.188;2024-03-25T08:46:01;8.60;99.90
51615;DHT22;37695;52.960;6.188;2024-03-25T08:48:26;8.30;99.90
51615;DHT22;37695;52.960;6.188;2024-03-25T08:50:52;8.10;99.90
51615;DHT22;37695;52.960;6.188;2024-03-25T08:53:18;7.70;99.90
51615;DHT22;37695;52.960;6.188;2024-03-25T08:55:47;8.10;99.90
51615;DHT22;37695;52.960;6.188;2024-03-25T08:58:16;8.10;99.90
51615;DHT22;37695;52.960;6.188;2024-03-25T09:00:42;8.50;99.90
51615;DHT22;37695;52.960;6.188;2024-03-25T09:03:08;10.10;99.90
51615;DHT22;37695;52.960;6.188;2024-03-25T09:05:36;7.90;99.90
51615;DHT22;37695;52.960;6.188;2024-03-25T09:08:07;9.20;99.90
51615;DHT22;37695;52.960;6.188;2024-03-25T09:10:37;8.60;99.90
51615;DHT22;37695;52.960;6.188;2024-03-25T09:13:21;8.60;99.90
51615;DHT22;37695;52.960;6.188;2024-03-25T09:15:49;11.00;99.90
51615;DHT22;37695;52.960;6.188;2024-03-25T09:18:14;8.50;99.90
51615;DHT22;37695;52.960;6.188;2024-03-25T09:20:40;8.20;99.90
51615;DHT22;37695;52.960;6.188;2024-03-25T09:23:06;9.10;99.90
51615;DHT22;37695;52.960;6.188;2024-03-25T09:25:33;9.80;99.90
51615;DHT22;37695;52.960;6.188;2024-03-25T09:27:58;8.50;99.90
51615;DHT22;37695;52.960;6.188;2024-03-25T09:30:24;8.70;99.90
51615;DHT22;37695;52.960;6.188;2024-03-25T09:32:50;8.70;99.90
51615;DHT22;37695;52.960;6.188;2024-03-25T09:35:15;8.20;99.90
51615;DHT22;37695;52.960;6.188;2024-03-25T09:37:41;8.30;99.90
51615;DHT22;37695;52.960;6.188;2024-03-25T09:40:08;8.50;99.90
51615;DHT22;37695;52.960;6.188;2024-03-25T09:45:08;8.10;99.90
51615;DHT22;37695;52.960;6.188;2024-03-25T09:47:35;8.50;99.90
51615;DHT22;37695;52.960;6.188;2024-03-25T09:50:04;8.80;99.90
51615;DHT22;37695;52.960;6.188;2024-03-25T09:52:31;8.20;99.90
51615;DHT22;37695;52.960;6.188;2024-03-25T09:54:57;9.00;99.90
51615;DHT22;37695;52.960;6.188;2024-03-25T09:57:22;8.70;99.90
51615;DHT22;37695;52.960;6.188;2024-03-25T09:59:49;9.60;99.90
51615;DHT22;37695;52.960;6.188;2024-03-25T10:02:14;9.80;99.90
51615;DHT22;37695;52.960;6.188;2024-03-25T10:04:46;10.10;99.90
51615;DHT22;37695;52.960;6.188;2024-03-25T10:07:21;10.30;99.90
51615;DHT22;37695;52.960;6.188;2024-03-25T10:09:47;10.30;99.90
51615;DHT22;37695;52.960;6.188;2024-03-25T10:12:13;10.30;99.90
51615;DHT22;37695;52.960;6.188;2024-03-25T10:14:42;12.60;99.90
51615;DHT22;37695;52.960;6.188;2024-03-25T10:17:07;10.30;99.90
51615;DHT22;37695;52.960;6.188;2024-03-25T10:19:33;10.30;99.90
51615;DHT22;37695;52.960;6.188;2024-03-25T10:24:45;10.60;99.90
51615;DHT22;37695;52.960;6.188;2024-03-25T10:27:22;10.50;99.90
51615;DHT22;37695;52.960;6.188;2024-03-25T10:29:52;10.50;99.90
51615;DHT22;37695;52.960;6.188;2024-03-25T10:32:18;10.30;99.90
51615;DHT22;37695;52.960;6.188;2024-03-25T10:34:44;10.10;99.90
51615;DHT22;37695;52.960;6.188;2024-03-25T10:37:11;10.00;99.90
51615;DHT22;37695;52.960;6.188;2024-03-25T10:39:46;9.70;99.90
51615;DHT22;37695;52.960;6.188;2024-03-25T10:42:15;9.60;99.90
51615;DHT22;37695;52.960;6.188;2024-03-25T10:44:44;9.50;99.90
51615;DHT22;37695;52.960;6.188;2024-03-25T10:47:17;9.40;99.90
51615;DHT22;37695;52.960;6.188;2024-03-25T10:49:49;9.10;99.90
51615;DHT22;37695;52.960;6.188;2024-03-25T10:52:16;9.50;99.90
51615;DHT22;37695;52.960;6.188;2024-03-25T10:54:45;9.50;99.90
51615;DHT22;37695;52.960;6.188;2024-03-25T10:57:13;9.50;99.90
51615;DHT22;37695;52.960;6.188;2024-03-25T10:59:39;9.50;99.90
51615;DHT22;37695;52.960;6.188;2024-03-25T11:02:07;9.60;99.90
51615;DHT22;37695;52.960;6.188;2024-03-25T11:04:33;9.60;99.90
51615;DHT22;37695;52.960;6.188;2024-03-25T11:07:13;9.60;99.90
51615;DHT22;37695;52.960;6.188;2024-03-25T11:09:40;9.70;99.90
51615;DHT22;37695;52.960;6.188;2024-03-25T11:12:07;11.00;99.90
51615;DHT22;37695;52.960;6.188;2024-03-25T11:14:34;11.30;99.90
51615;DHT22;37695;52.960;6.188;2024-03-25T11:17:01;9.90;99.90
51615;DHT22;37695;52.960;6.188;2024-03-25T11:19:28;10.00;99.90
51615;DHT22;37695;52.960;6.188;2024-03-25T11:22:05;10.10;99.90
51615;DHT22;37695;52.960;6.188;2024-03-25T11:24:31;10.20;99.90
51615;DHT22;37695;52.960;6.188;2024-03-25T11:26:57;10.30;99.90
51615;DHT22;37695;52.960;6.188;2024-03-25T11:29:23;10.80;99.90
51615;DHT22;37695;52.960;6.188;2024-03-25T11:31:49;10.30;99.90
51615;DHT22;37695;52.960;6.188;2024-03-25T11:34:15;10.60;99.90
51615;DHT22;37695;52.960;6.188;2024-03-25T11:36:41;10.70;99.90
51615;DHT22;37695;52.960;6.188;2024-03-25T11:39:07;10.80;99.90
51615;DHT22;37695;52.960;6.188;2024-03-25T11:41:44;11.00;99.90
51615;DHT22;37695;52.960;6.188;2024-03-25T11:44:11;11.10;99.90
51615;DHT22;37695;52.960;6.188;2024-03-25T11:46:40;11.10;99.90
51615;DHT22;37695;52.960;6.188;2024-03-25T11:49:12;11.00;99.90
51615;DHT22;37695;52.960;6.188;2024-03-25T11:51:38;11.00;99.90
51615;DHT22;37695;52.960;6.188;2024-03-25T11:54:09;10.90;99.90
51615;DHT22;37695;52.960;6.188;2024-03-25T11:56:36;11.00;99.90
51615;DHT22;37695;52.960;6.188;2024-03-25T11:59:03;10.90;99.90
51615;DHT22;37695;52.960;6.188;2024-03-25T12:01:30;10.80;99.90
51615;DHT22;37695;52.960;6.188;2024-03-25T12:03:55;10.90;99.90
51615;DHT22;37695;52.960;6.188;2024-03-25T12:06:21;11.10;99.90
51615;DHT22;37695;52.960;6.188;2024-03-25T12:08:47;11.40;99.90
51615;DHT22;37695;52.960;6.188;2024-03-25T12:11:32;11.60;99.90
51615;DHT22;37695;52.960;6.188;2024-03-25T12:13:59;11.70;99.90
51615;DHT22;37695;52.960;6.188;2024-03-25T12:16:25;11.90;99.90
51615;DHT22;37695;52.960;6.188;2024-03-25T12:18:51;11.90;99.90
51615;DHT22;37695;52.960;6.188;2024-03-25T12:21:20;11.90;99.90
51615;DHT22;37695;52.960;6.188;2024-03-25T12:23:47;12.00;99.90
51615;DHT22;37695;52.960;6.188;2024-03-25T12:26:13;12.20;99.90
51615;DHT22;37695;52.960;6.188;2024-03-25T12:28:39;12.10;99.90
51615;DHT22;37695;52.960;6.188;2024-03-25T12:31:09;11.90;99.90
51615;DHT22;37695;52.960;6.188;2024-03-25T12:33:40;11.70;99.90
51615;DHT22;37695;52.960;6.188;2024-03-25T12:36:06;11.80;99.90
51615;DHT22;37695;52.960;6.188;2024-03-25T12:38:32;12.00;99.90
51615;DHT22;37695;52.960;6.188;2024-03-25T12:41:08;12.10;99.90
51615;DHT22;37695;52.960;6.188;2024-03-25T12:43:35;12.20;99.90
51615;DHT22;37695;52.960;6.188;2024-03-25T12:46:01;12.00;99.90
51615;DHT22;37695;52.960;6.188;2024-03-25T12:48:29;11.90;99.90
51615;DHT22;37695;52.960;6.188;2024-03-25T12:50:55;11.70;99.90
51615;DHT22;37695;52.960;6.188;2024-03-25T12:53:21;11.80;99.90
51615;DHT22;37695;52.960;6.188;2024-03-25T12:55:46;11.90;99.90
51615;DHT22;37695;52.960;6.188;2024-03-25T12:58:12;11.90;99.90
51615;DHT22;37695;52.960;6.188;2024-03-25T13:00:38;12.10;99.90
51615;DHT22;37695;52.960;6.188;2024-03-25T13:03:08;12.20;99.90
51615;DHT22;37695;52.960;6.188;2024-03-25T13:05:34;12.10;99.90
51615;DHT22;37695;52.960;6.188;2024-03-25T13:08:00;12.10;99.90
51615;DHT22;37695;52.960;6.188;2024-03-25T13:10:26;12.10;99.90
51615;DHT22;37695;52.960;6.188;2024-03-25T13:12:52;12.20;99.90
51615;DHT22;37695;52.960;6.188;2024-03-25T13:15:17;12.20;99.90
51615;DHT22;37695;52.960;6.188;2024-03-25T13:17:43;12.20;99.90
51615;DHT22;37695;52.960;6.188;2024-03-25T13:20:09;12.30;99.90
51615;DHT22;37695;52.960;6.188;2024-03-25T13:22:35;12.50;99.90
51615;DHT22;37695;52.960;6.188;2024-03-25T13:25:01;12.80;99.90
51615;DHT22;37695;52.960;6.188;2024-03-25T13:27:26;13.00;99.90
51615;DHT22;37695;52.960;6.188;2024-03-25T13:29:52;13.10;99.90
51615;DHT22;37695;52.960;6.188;2024-03-25T13:32:21;13.10;99.90
51615;DHT22;37695;52.960;6.188;2024-03-25T13:34:47;13.00;99.90
51615;DHT22;37695;52.960;6.188;2024-03-25T13:37:13;12.90;99.90
51615;DHT22;37695;52.960;6.188;2024-03-25T13:39:38;12.80;99.90
51615;DHT22;37695;52.960;6.188;2024-03-25T13:42:04;12.60;99.90
51615;DHT22;37695;52.960;6.188;2024-03-25T13:44:30;12.50;99.90
51615;DHT22;37695;52.960;6.188;2024-03-25T13:46:56;12.50;99.90
51615;DHT22;37695;52.960;6.188;2024-03-25T13:49:21;12.30;99.90
51615;DHT22;37695;52.960;6.188;2024-03-25T13:51:51;12.40;99.90
51615;DHT22;37695;52.960;6.188;2024-03-25T13:54:21;12.40;99.90
51615;DHT22;37695;52.960;6.188;2024-03-25T13:56:46;12.60;99.90
51615;DHT22;37695;52.960;6.188;2024-03-25T13:59:12;12.70;99.90
51615;DHT22;37695;52.960;6.188;2024-03-25T14:01:38;12.70;99.90
51615;DHT22;37695;52.960;6.188;2024-03-25T14:04:05;12.80;99.90
51615;DHT22;37695;52.960;6.188;2024-03-25T14:06:32;12.80;99.90
51615;DHT22;37695;52.960;6.188;2024-03-25T14:08:59;12.60;99.90
51615;DHT22;37695;52.960;6.188;2024-03-25T14:11:24;12.40;99.90
51615;DHT22;37695;52.960;6.188;2024-03-25T14:13:50;12.20;99.90
51615;DHT22;37695;52.960;6.188;2024-03-25T14:16:16;12.10;99.90
51615;DHT22;37695;52.960;6.188;2024-03-25T14:18:41;11.90;99.90
51615;DHT22;37695;52.960;6.188;2024-03-25T14:21:07;11.80;99.90
51615;DHT22;37695;52.960;6.188;2024-03-25T14:23:33;11.60;99.90
51615;DHT22;37695;52.960;6.188;2024-03-25T14:25:58;11.40;99.90
51615;DHT22;37695;52.960;6.188;2024-03-25T14:28:24;11.30;99.90
51615;DHT22;37695;52.960;6.188;2024-03-25T14:30:49;11.20;99.90
51615;DHT22;37695;52.960;6.188;2024-03-25T14:33:15;11.20;99.90
51615;DHT22;37695;52.960;6.188;2024-03-25T14:35:41;11.20;99.90
51615;DHT22;37695;52.960;6.188;2024-03-25T14:38:07;11.20;99.90
51615;DHT22;37695;52.960;6.188;2024-03-25T14:40:37;11.30;99.90
51615;DHT22;37695;52.960;6.188;2024-03-25T14:43:02;11.40;99.90
51615;DHT22;37695;52.960;6.188;2024-03-25T14:45:28;11.70;99.90
51615;DHT22;37695;52.960;6.188;2024-03-25T14:47:55;12.00;99.90
51615;DHT22;37695;52.960;6.188;2024-03-25T14:50:20;12.20;99.90
51615;DHT22;37695;52.960;6.188;2024-03-25T14:52:46;12.50;99.90
51615;DHT22;37695;52.960;6.188;2024-03-25T14:55:12;12.60;99.90
51615;DHT22;37695;52.960;6.188;2024-03-25T14:57:38;12.80;99.90
51615;DHT22;37695;52.960;6.188;2024-03-25T15:00:03;12.90;99.90
51615;DHT22;37695;52.960;6.188;2024-03-25T15:02:30;12.90;99.90
51615;DHT22;37695;52.960;6.188;2024-03-25T15:04:56;13.00;99.90
51615;DHT22;37695;52.960;6.188;2024-03-25T15:07:22;13.10;99.90
51615;DHT22;37695;52.960;6.188;2024-03-25T15:09:47;13.00;99.90
51615;DHT22;37695;52.960;6.188;2024-03-25T15:12:13;13.00;99.80
51615;DHT22;37695;52.960;6.188;2024-03-25T15:14:39;13.10;99.90
51615;DHT22;37695;52.960;6.188;2024-03-25T15:17:04;13.10;99.70
51615;DHT22;37695;52.960;6.188;2024-03-25T15:19:30;13.10;99.60
51615;DHT22;37695;52.960;6.188;2024-03-25T15:21:56;13.20;99.70
51615;DHT22;37695;52.960;6.188;2024-03-25T15:24:22;13.30;99.70
51615;DHT22;37695;52.960;6.188;2024-03-25T15:26:48;13.50;99.90
51615;DHT22;37695;52.960;6.188;2024-03-25T15:29:13;13.70;99.90
51615;DHT22;37695;52.960;6.188;2024-03-25T15:31:39;13.70;99.90
51615;DHT22;37695;52.960;6.188;2024-03-25T15:34:05;13.70;99.20
51615;DHT22;37695;52.960;6.188;2024-03-25T15:36:30;13.80;99.30
51615;DHT22;37695;52.960;6.188;2024-03-25T15:38:57;13.70;98.70
51615;DHT22;37695;52.960;6.188;2024-03-25T15:41:22;13.80;98.10
51615;DHT22;37695;52.960;6.188;2024-03-25T15:43:52;13.70;97.90
51615;DHT22;37695;52.960;6.188;2024-03-25T15:46:18;13.80;98.00
51615;DHT22;37695;52.960;6.188;2024-03-25T15:48:43;14.00;98.00
51615;DHT22;37695;52.960;6.188;2024-03-25T15:51:10;14.10;98.40
51615;DHT22;37695;52.960;6.188;2024-03-25T15:53:35;14.30;98.60
51615;DHT22;37695;52.960;6.188;2024-03-25T15:56:01;14.90;96.90
51615;DHT22;37695;52.960;6.188;2024-03-25T15:58:27;14.70;98.10
51615;DHT22;37695;52.960;6.188;2024-03-25T16:00:52;14.90;97.70
51615;DHT22;37695;52.960;6.188;2024-03-25T16:03:18;14.90;97.80
51615;DHT22;37695;52.960;6.188;2024-03-25T16:05:44;14.90;98.00
51615;DHT22;37695;52.960;6.188;2024-03-25T16:08:09;14.90;97.70
51615;DHT22;37695;52.960;6.188;2024-03-25T16:10:35;15.00;97.50
51615;DHT22;37695;52.960;6.188;2024-03-25T16:13:02;15.30;97.20
51615;DHT22;37695;52.960;6.188;2024-03-25T16:15:31;15.20;96.70
51615;DHT22;37695;52.960;6.188;2024-03-25T16:17:57;14.90;96.90
51615;DHT22;37695;52.960;6.188;2024-03-25T16:20:23;14.60;97.00
51615;DHT22;37695;52.960;6.188;2024-03-25T16:22:49;14.40;97.30
51615;DHT22;37695;52.960;6.188;2024-03-25T16:25:16;14.10;97.50
51615;DHT22;37695;52.960;6.188;2024-03-25T16:27:41;13.70;97.20
51615;DHT22;37695;52.960;6.188;2024-03-25T16:30:07;13.30;98.00
51615;DHT22;37695;52.960;6.188;2024-03-25T16:32:37;13.30;98.30
51615;DHT22;37695;52.960;6.188;2024-03-25T16:35:03;13.40;98.10
51615;DHT22;37695;52.960;6.188;2024-03-25T16:37:30;13.40;98.10
51615;DHT22;37695;52.960;6.188;2024-03-25T16:39:56;13.40;97.80
51615;DHT22;37695;52.960;6.188;2024-03-25T16:42:23;13.40;98.10
51615;DHT22;37695;52.960;6.188;2024-03-25T16:44:49;13.50;98.60
51615;DHT22;37695;52.960;6.188;2024-03-25T16:47:14;13.70;98.20
51615;DHT22;37695;52.960;6.188;2024-03-25T16:49:41;13.60;98.30
51615;DHT22;37695;52.960;6.188;2024-03-25T16:52:07;13.50;98.70